sensor_id;sensor_type;location;lat;lon;timestamp;pressure;altitude;pressure_sealevel;temperature;humidity
70200;BME280;57587;55.688;37.600;2022-09-27T00:01:08;99154.69;;;7.86;76.42
70200;BME280;57587;55.688;37.600;2022-09-27T00:03:35;99147.72;;;7.85;76.56
70200;BME280;57587;55.688;37.600;2022-09-27T00:06:13;99148.06;;;7.82;76.42
70200;BME280;57587;55.688;37.600;2022-09-27T00:08:41;99148.06;;;7.82;76.31
70200;BME280;57587;55.688;37.600;2022-09-27T00:11:29;99148.41;;;7.79;76.59
70200;BME280;57587;55.688;37.600;2022-09-27T00:13:58;99150.44;;;7.77;76.64
70200;BME280;57587;55.688;37.600;2022-09-27T00:16:27;99150.44;;;7.77;77.00
70200;BME280;57587;55.688;37.600;2022-09-27T00:19:00;99152.44;;;7.75;76.82
70200;BME280;57587;55.688;37.600;2022-09-27T00:21:28;99156.13;;;7.74;76.58
70200;BME280;57587;55.688;37.600;2022-09-27T00:23:57;99153.16;;;7.69;76.86
70200;BME280;57587;55.688;37.600;2022-09-27T00:26:25;99147.81;;;7.69;76.98
70200;BME280;57587;55.688;37.600;2022-09-27T00:28:52;99152.50;;;7.67;77.15
70200;BME280;57587;55.688;37.600;2022-09-27T00:31:24;99144.97;;;7.71;76.93
70200;BME280;57587;55.688;37.600;2022-09-27T00:33:53;99147.63;;;7.71;76.71
70200;BME280;57587;55.688;37.600;2022-09-27T00:36:22;99149.47;;;7.70;76.54
70200;BME280;57587;55.688;37.600;2022-09-27T00:38:52;99155.16;;;7.67;76.61
70200;BME280;57587;55.688;37.600;2022-09-27T00:41:32;99150.88;;;7.58;76.74
70200;BME280;57587;55.688;37.600;2022-09-27T00:44:03;99153.59;;;7.50;76.84
70200;BME280;57587;55.688;37.600;2022-09-27T00:49:08;99144.25;;;7.54;76.51
70200;BME280;57587;55.688;37.600;2022-09-27T00:51:38;99157.53;;;7.62;76.33
70200;BME280;57587;55.688;37.600;2022-09-27T00:54:09;99171.31;;;7.66;77.00
70200;BME280;57587;55.688;37.600;2022-09-27T00:56:39;99166.34;;;7.62;76.66
70200;BME280;57587;55.688;37.600;2022-09-27T01:01:42;99172.13;;;7.66;76.49
70200;BME280;57587;55.688;37.600;2022-09-27T01:04:12;99169.47;;;7.66;76.99
70200;BME280;57587;55.688;37.600;2022-09-27T01:06:40;99164.63;;;7.70;76.88
70200;BME280;57587;55.688;37.600;2022-09-27T01:09:09;99169.78;;;7.71;76.23
70200;BME280;57587;55.688;37.600;2022-09-27T01:20:06;99172.81;;;7.68;76.11
70200;BME280;57587;55.688;37.600;2022-09-27T01:39:44;99157.19;;;7.65;76.13
70200;BME280;57587;55.688;37.600;2022-09-27T01:43:11;99155.50;;;7.64;76.17
70200;BME280;57587;55.688;37.600;2022-09-27T01:48:45;99151.19;;;7.63;76.05
70200;BME280;57587;55.688;37.600;2022-09-27T01:51:43;99162.84;;;7.62;76.01
70200;BME280;57587;55.688;37.600;2022-09-27T01:54:13;99154.19;;;7.60;76.64
70200;BME280;57587;55.688;37.600;2022-09-27T01:57:00;99149.88;;;7.59;76.00
70200;BME280;57587;55.688;37.600;2022-09-27T02:02:21;99150.03;;;7.57;76.07
70200;BME280;57587;55.688;37.600;2022-09-27T02:05:10;99145.91;;;7.55;75.75
70200;BME280;57587;55.688;37.600;2022-09-27T02:07:48;99144.59;;;7.51;75.59
70200;BME280;57587;55.688;37.600;2022-09-27T02:10:21;99148.28;;;7.50;76.87
70200;BME280;57587;55.688;37.600;2022-09-27T02:13:21;99148.28;;;7.50;76.59
70200;BME280;57587;55.688;37.600;2022-09-27T02:24:20;99149.81;;;7.36;76.28
70200;BME280;57587;55.688;37.600;2022-09-27T02:27:00;99147.16;;;7.36;76.48
70200;BME280;57587;55.688;37.600;2022-09-27T02:29:39;99152.31;;;7.37;76.31
70200;BME280;57587;55.688;37.600;2022-09-27T02:32:08;99147.50;;;7.33;76.57
70200;BME280;57587;55.688;37.600;2022-09-27T02:34:35;99144.34;;;7.37;77.07
70200;BME280;57587;55.688;37.600;2022-09-27T02:37:04;99143.47;;;7.37;76.33
70200;BME280;57587;55.688;37.600;2022-09-27T02:39:33;99147.16;;;7.36;76.67
70200;BME280;57587;55.688;37.600;2022-09-27T02:42:04;99152.34;;;7.29;76.23
70200;BME280;57587;55.688;37.600;2022-09-27T02:44:33;99142.72;;;7.28;76.23
70200;BME280;57587;55.688;37.600;2022-09-27T02:49:49;99162.66;;;7.32;75.70
70200;BME280;57587;55.688;37.600;2022-09-27T02:55:39;99164.66;;;7.30;75.27
70200;BME280;57587;55.688;37.600;2022-09-27T03:07:05;99167.69;;;7.19;75.77
70200;BME280;57587;55.688;37.600;2022-09-27T03:10:00;99164.03;;;7.20;75.87
70200;BME280;57587;55.688;37.600;2022-09-27T03:12:33;99169.69;;;7.17;75.72
70200;BME280;57587;55.688;37.600;2022-09-27T03:15:01;99164.03;;;7.20;76.02
70200;BME280;57587;55.688;37.600;2022-09-27T03:17:51;99174.00;;;7.18;76.18
70200;BME280;57587;55.688;37.600;2022-09-27T03:20:36;99169.53;;;7.19;76.13
70200;BME280;57587;55.688;37.600;2022-09-27T03:23:08;99176.53;;;7.11;76.27
70200;BME280;57587;55.688;37.600;2022-09-27T03:25:35;99174.34;;;7.15;76.24
70200;BME280;57587;55.688;37.600;2022-09-27T03:28:03;99172.03;;;7.12;76.96
70200;BME280;57587;55.688;37.600;2022-09-27T03:30:33;99177.69;;;7.17;76.59
70200;BME280;57587;55.688;37.600;2022-09-27T03:33:00;99176.31;;;7.21;76.32
70200;BME280;57587;55.688;37.600;2022-09-27T03:35:50;99174.31;;;7.23;77.54
70200;BME280;57587;55.688;37.600;2022-09-27T03:38:17;99173.31;;;7.24;76.43
70200;BME280;57587;55.688;37.600;2022-09-27T03:40:45;99173.81;;;7.28;77.00
70200;BME280;57587;55.688;37.600;2022-09-27T03:43:12;99178.97;;;7.29;77.30
70200;BME280;57587;55.688;37.600;2022-09-27T03:45:42;99174.94;;;7.33;77.04
70200;BME280;57587;55.688;37.600;2022-09-27T03:48:10;99181.94;;;7.34;77.03
70200;BME280;57587;55.688;37.600;2022-09-27T03:50:37;99175.78;;;7.34;77.38
70200;BME280;57587;55.688;37.600;2022-09-27T03:53:04;99177.09;;;7.38;77.37
70200;BME280;57587;55.688;37.600;2022-09-27T03:55:31;99180.22;;;7.50;76.71
70200;BME280;57587;55.688;37.600;2022-09-27T03:57:59;99171.59;;;7.71;75.88
70200;BME280;57587;55.688;37.600;2022-09-27T04:00:26;99173.53;;;8.31;75.08
70200;BME280;57587;55.688;37.600;2022-09-27T04:02:55;99179.66;;;9.07;73.54
70200;BME280;57587;55.688;37.600;2022-09-27T04:05:26;99179.41;;;9.83;70.37
70200;BME280;57587;55.688;37.600;2022-09-27T04:08:06;99178.06;;;10.51;67.64
70200;BME280;57587;55.688;37.600;2022-09-27T04:10:33;99176.44;;;11.13;66.18
70200;BME280;57587;55.688;37.600;2022-09-27T04:13:03;99178.38;;;11.74;63.26
70200;BME280;57587;55.688;37.600;2022-09-27T04:15:42;99184.72;;;12.41;61.19
70200;BME280;57587;55.688;37.600;2022-09-27T04:18:35;99181.63;;;12.97;59.37
70200;BME280;57587;55.688;37.600;2022-09-27T04:21:21;99175.88;;;13.65;57.52
70200;BME280;57587;55.688;37.600;2022-09-27T04:23:50;99185.06;;;14.27;54.82
70200;BME280;57587;55.688;37.600;2022-09-27T04:26:20;99190.09;;;14.81;54.26
70200;BME280;57587;55.688;37.600;2022-09-27T04:28:52;99174.06;;;15.48;52.56
70200;BME280;57587;55.688;37.600;2022-09-27T04:31:21;99184.25;;;16.12;50.58
70200;BME280;57587;55.688;37.600;2022-09-27T04:33:52;99186.34;;;16.52;48.51
70200;BME280;57587;55.688;37.600;2022-09-27T04:36:31;99187.00;;;16.78;46.75
70200;BME280;57587;55.688;37.600;2022-09-27T04:39:12;99191.03;;;17.22;46.21
70200;BME280;57587;55.688;37.600;2022-09-27T04:41:41;99187.19;;;17.59;45.09
70200;BME280;57587;55.688;37.600;2022-09-27T04:44:08;99190.06;;;17.92;43.61
70200;BME280;57587;55.688;37.600;2022-09-27T04:46:35;99183.59;;;18.22;42.68
70200;BME280;57587;55.688;37.600;2022-09-27T04:49:02;99183.31;;;18.69;42.10
70200;BME280;57587;55.688;37.600;2022-09-27T04:51:33;99186.38;;;18.89;41.75
70200;BME280;57587;55.688;37.600;2022-09-27T04:54:00;99187.22;;;19.51;40.05
70200;BME280;57587;55.688;37.600;2022-09-27T04:56:40;99193.88;;;20.04;39.41
70200;BME280;57587;55.688;37.600;2022-09-27T04:59:08;99191.50;;;20.40;38.30
70200;BME280;57587;55.688;37.600;2022-09-27T05:01:39;99193.44;;;20.71;37.35
70200;BME280;57587;55.688;37.600;2022-09-27T05:04:13;99197.81;;;21.47;37.18
70200;BME280;57587;55.688;37.600;2022-09-27T05:06:46;99202.31;;;21.79;35.34
70200;BME280;57587;55.688;37.600;2022-09-27T05:09:22;99192.75;;;21.76;35.51
70200;BME280;57587;55.688;37.600;2022-09-27T05:11:52;99189.97;;;21.61;35.17
70200;BME280;57587;55.688;37.600;2022-09-27T05:14:31;99193.88;;;21.80;34.83
70200;BME280;57587;55.688;37.600;2022-09-27T05:17:09;99189.97;;;22.39;34.31
70200;BME280;57587;55.688;37.600;2022-09-27T05:19:48;99189.72;;;23.02;33.92
70200;BME280;57587;55.688;37.600;2022-09-27T05:22:35;99180.53;;;23.68;31.84
70200;BME280;57587;55.688;37.600;2022-09-27T05:25:04;99177.81;;;23.73;31.57
70200;BME280;57587;55.688;37.600;2022-09-27T05:27:31;99183.63;;;24.16;30.60
70200;BME280;57587;55.688;37.600;2022-09-27T05:29:59;99190.13;;;24.25;30.58
70200;BME280;57587;55.688;37.600;2022-09-27T05:32:42;99181.72;;;24.90;30.51
70200;BME280;57587;55.688;37.600;2022-09-27T05:35:32;99185.47;;;25.52;28.79
70200;BME280;57587;55.688;37.600;2022-09-27T05:38:02;99187.50;;;25.90;28.16
70200;BME280;57587;55.688;37.600;2022-09-27T05:40:33;99185.16;;;26.21;27.87
70200;BME280;57587;55.688;37.600;2022-09-27T05:43:09;99172.41;;;26.49;27.14
70200;BME280;57587;55.688;37.600;2022-09-27T05:45:36;99174.72;;;26.61;26.65
70200;BME280;57587;55.688;37.600;2022-09-27T05:48:05;99175.88;;;26.87;26.74
70200;BME280;57587;55.688;37.600;2022-09-27T05:50:41;99174.56;;;27.18;26.14
70200;BME280;57587;55.688;37.600;2022-09-27T05:53:08;99175.47;;;27.41;25.87
70200;BME280;57587;55.688;37.600;2022-09-27T05:55:36;99172.25;;;27.80;25.46
70200;BME280;57587;55.688;37.600;2022-09-27T05:58:06;99174.84;;;28.13;25.24
70200;BME280;57587;55.688;37.600;2022-09-27T06:00:47;99164.59;;;28.63;25.38
70200;BME280;57587;55.688;37.600;2022-09-27T06:03:34;99170.31;;;28.98;24.28
70200;BME280;57587;55.688;37.600;2022-09-27T06:06:40;99173.44;;;29.36;23.83
70200;BME280;57587;55.688;37.600;2022-09-27T06:09:12;99163.06;;;29.42;23.28
70200;BME280;57587;55.688;37.600;2022-09-27T06:11:40;99158.00;;;29.67;23.46
70200;BME280;57587;55.688;37.600;2022-09-27T06:14:13;99161.28;;;29.95;22.51
70200;BME280;57587;55.688;37.600;2022-09-27T06:17:06;99168.94;;;29.89;22.43
70200;BME280;57587;55.688;37.600;2022-09-27T06:19:36;99164.41;;;30.02;22.42
70200;BME280;57587;55.688;37.600;2022-09-27T06:22:07;99172.16;;;29.91;22.42
70200;BME280;57587;55.688;37.600;2022-09-27T06:24:44;99164.84;;;29.86;22.39
70200;BME280;57587;55.688;37.600;2022-09-27T06:27:18;99166.53;;;30.14;22.24
70200;BME280;57587;55.688;37.600;2022-09-27T06:29:56;99156.13;;;30.02;22.51
70200;BME280;57587;55.688;37.600;2022-09-27T06:33:00;99162.22;;;29.24;22.75
70200;BME280;57587;55.688;37.600;2022-09-27T06:35:34;99163.56;;;30.10;22.22
70200;BME280;57587;55.688;37.600;2022-09-27T06:38:06;99154.50;;;30.88;20.94
70200;BME280;57587;55.688;37.600;2022-09-27T06:40:40;99161.69;;;31.18;20.89
70200;BME280;57587;55.688;37.600;2022-09-27T06:43:29;99153.00;;;30.99;20.83
70200;BME280;57587;55.688;37.600;2022-09-27T06:46:23;99155.78;;;29.95;21.83
70200;BME280;57587;55.688;37.600;2022-09-27T06:49:03;99148.16;;;28.13;23.60
70200;BME280;57587;55.688;37.600;2022-09-27T06:51:31;99152.09;;;26.31;26.08
70200;BME280;57587;55.688;37.600;2022-09-27T06:53:58;99163.31;;;25.25;27.66
70200;BME280;57587;55.688;37.600;2022-09-27T06:56:26;99145.06;;;24.57;28.82
70200;BME280;57587;55.688;37.600;2022-09-27T06:58:53;99160.41;;;24.08;29.92
70200;BME280;57587;55.688;37.600;2022-09-27T07:01:44;99152.16;;;25.88;27.53
70200;BME280;57587;55.688;37.600;2022-09-27T07:04:33;99160.50;;;25.06;28.33
70200;BME280;57587;55.688;37.600;2022-09-27T07:07:20;99147.53;;;23.59;30.58
70200;BME280;57587;55.688;37.600;2022-09-27T07:09:48;99153.47;;;22.45;32.21
70200;BME280;57587;55.688;37.600;2022-09-27T07:12:16;99148.81;;;22.41;32.82
70200;BME280;57587;55.688;37.600;2022-09-27T07:14:43;99146.31;;;24.30;29.82
70200;BME280;57587;55.688;37.600;2022-09-27T07:17:15;99149.06;;;26.52;27.27
70200;BME280;57587;55.688;37.600;2022-09-27T07:19:43;99149.56;;;27.19;26.11
70200;BME280;57587;55.688;37.600;2022-09-27T07:22:11;99147.31;;;28.71;24.49
70200;BME280;57587;55.688;37.600;2022-09-27T07:24:42;99158.69;;;27.56;24.88
70200;BME280;57587;55.688;37.600;2022-09-27T07:27:10;99155.16;;;28.56;23.78
70200;BME280;57587;55.688;37.600;2022-09-27T07:29:37;99154.94;;;26.78;25.39
70200;BME280;57587;55.688;37.600;2022-09-27T07:32:07;99142.38;;;26.39;26.10
70200;BME280;57587;55.688;37.600;2022-09-27T07:34:36;99151.47;;;27.46;25.25
70200;BME280;57587;55.688;37.600;2022-09-27T07:37:03;99147.53;;;28.16;23.83
70200;BME280;57587;55.688;37.600;2022-09-27T07:39:35;99145.50;;;28.67;24.03
70200;BME280;57587;55.688;37.600;2022-09-27T07:42:06;99154.53;;;27.58;24.46
70200;BME280;57587;55.688;37.600;2022-09-27T07:44:37;99154.56;;;28.09;24.22
70200;BME280;57587;55.688;37.600;2022-09-27T07:47:42;99153.31;;;29.27;22.59
70200;BME280;57587;55.688;37.600;2022-09-27T07:50:37;99157.63;;;30.34;21.03
70200;BME280;57587;55.688;37.600;2022-09-27T07:53:23;99151.25;;;30.86;20.60
70200;BME280;57587;55.688;37.600;2022-09-27T07:55:56;99151.03;;;30.99;20.85
70200;BME280;57587;55.688;37.600;2022-09-27T07:58:26;99154.66;;;31.30;20.72
70200;BME280;57587;55.688;37.600;2022-09-27T08:00:58;99150.19;;;31.84;19.81
70200;BME280;57587;55.688;37.600;2022-09-27T08:03:26;99149.75;;;32.03;19.58
70200;BME280;57587;55.688;37.600;2022-09-27T08:05:53;99152.19;;;32.80;19.65
70200;BME280;57587;55.688;37.600;2022-09-27T08:08:20;99145.00;;;33.12;18.47
70200;BME280;57587;55.688;37.600;2022-09-27T08:10:49;99145.38;;;32.77;17.94
70200;BME280;57587;55.688;37.600;2022-09-27T08:13:17;99146.31;;;32.06;18.53
70200;BME280;57587;55.688;37.600;2022-09-27T08:15:48;99146.44;;;31.59;18.70
70200;BME280;57587;55.688;37.600;2022-09-27T08:18:19;99143.28;;;30.84;19.01
70200;BME280;57587;55.688;37.600;2022-09-27T08:20:58;99142.63;;;30.87;19.60
70200;BME280;57587;55.688;37.600;2022-09-27T08:23:30;99137.81;;;30.23;20.06
70200;BME280;57587;55.688;37.600;2022-09-27T08:26:27;99140.41;;;30.11;20.00
70200;BME280;57587;55.688;37.600;2022-09-27T08:29:00;99147.06;;;30.45;19.89
70200;BME280;57587;55.688;37.600;2022-09-27T08:31:31;99145.28;;;30.40;19.94
70200;BME280;57587;55.688;37.600;2022-09-27T08:33:58;99136.53;;;30.21;19.57
70200;BME280;57587;55.688;37.600;2022-09-27T08:36:25;99137.06;;;28.41;22.00
70200;BME280;57587;55.688;37.600;2022-09-27T08:38:52;99141.00;;;27.48;23.27
70200;BME280;57587;55.688;37.600;2022-09-27T08:41:35;99135.97;;;27.92;21.93
70200;BME280;57587;55.688;37.600;2022-09-27T08:49:56;99136.84;;;26.06;24.73
70200;BME280;57587;55.688;37.600;2022-09-27T08:52:43;99143.00;;;25.31;25.05
70200;BME280;57587;55.688;37.600;2022-09-27T08:55:28;99135.16;;;23.82;27.27
70200;BME280;57587;55.688;37.600;2022-09-27T08:58:00;99128.16;;;24.10;27.52
70200;BME280;57587;55.688;37.600;2022-09-27T09:00:28;99121.72;;;23.26;28.36
70200;BME280;57587;55.688;37.600;2022-09-27T09:02:57;99117.91;;;23.27;28.62
70200;BME280;57587;55.688;37.600;2022-09-27T09:05:31;99118.28;;;23.70;27.94
70200;BME280;57587;55.688;37.600;2022-09-27T09:13:47;99123.91;;;21.23;32.69
70200;BME280;57587;55.688;37.600;2022-09-27T09:16:40;99126.44;;;23.00;30.23
70200;BME280;57587;55.688;37.600;2022-09-27T09:23:00;99126.69;;;24.63;27.03
70200;BME280;57587;55.688;37.600;2022-09-27T09:31:11;99127.94;;;28.18;22.89
70200;BME280;57587;55.688;37.600;2022-09-27T09:33:47;99124.75;;;28.61;22.55
70200;BME280;57587;55.688;37.600;2022-09-27T09:36:31;99122.94;;;28.56;21.83
70200;BME280;57587;55.688;37.600;2022-09-27T09:39:20;99115.66;;;27.79;22.68
70200;BME280;57587;55.688;37.600;2022-09-27T09:46:35;99117.47;;;24.53;25.34
70200;BME280;57587;55.688;37.600;2022-09-27T09:49:23;99114.19;;;22.31;28.61
70200;BME280;57587;55.688;37.600;2022-09-27T09:52:05;99123.09;;;21.91;30.06
70200;BME280;57587;55.688;37.600;2022-09-27T09:54:43;99119.69;;;20.95;31.60
70200;BME280;57587;55.688;37.600;2022-09-27T09:59:55;99110.56;;;22.05;28.63
70200;BME280;57587;55.688;37.600;2022-09-27T10:05:11;99100.00;;;22.44;28.54
70200;BME280;57587;55.688;37.600;2022-09-27T10:07:40;99104.25;;;23.22;28.58
70200;BME280;57587;55.688;37.600;2022-09-27T10:10:12;99100.53;;;23.67;28.08
70200;BME280;57587;55.688;37.600;2022-09-27T10:12:55;99095.63;;;23.69;27.88
70200;BME280;57587;55.688;37.600;2022-09-27T10:15:29;99097.09;;;23.96;26.65
70200;BME280;57587;55.688;37.600;2022-09-27T10:17:58;99095.59;;;24.19;26.50
70200;BME280;57587;55.688;37.600;2022-09-27T10:20:34;99107.44;;;24.44;26.44
70200;BME280;57587;55.688;37.600;2022-09-27T10:23:16;99102.66;;;24.25;25.19
70200;BME280;57587;55.688;37.600;2022-09-27T10:26:05;99095.34;;;23.71;25.62
70200;BME280;57587;55.688;37.600;2022-09-27T10:28:42;99090.47;;;23.58;27.16
70200;BME280;57587;55.688;37.600;2022-09-27T10:31:19;99097.59;;;23.54;27.44
70200;BME280;57587;55.688;37.600;2022-09-27T10:33:58;99102.84;;;23.40;28.10
70200;BME280;57587;55.688;37.600;2022-09-27T10:36:34;99089.59;;;23.67;26.92
70200;BME280;57587;55.688;37.600;2022-09-27T10:39:04;99089.22;;;23.89;26.95
70200;BME280;57587;55.688;37.600;2022-09-27T10:41:44;99085.56;;;23.55;27.65
70200;BME280;57587;55.688;37.600;2022-09-27T10:44:27;99089.84;;;23.06;28.08
70200;BME280;57587;55.688;37.600;2022-09-27T10:47:16;99085.59;;;22.49;28.51
70200;BME280;57587;55.688;37.600;2022-09-27T10:50:05;99082.03;;;22.18;29.03
70200;BME280;57587;55.688;37.600;2022-09-27T10:55:39;99089.22;;;20.23;31.37
70200;BME280;57587;55.688;37.600;2022-09-27T10:58:19;99083.38;;;19.55;32.88
70200;BME280;57587;55.688;37.600;2022-09-27T11:00:58;99086.72;;;18.97;33.70
70200;BME280;57587;55.688;37.600;2022-09-27T11:03:58;99074.75;;;18.76;34.12
70200;BME280;57587;55.688;37.600;2022-09-27T11:08:53;99083.31;;;18.17;35.81
70200;BME280;57587;55.688;37.600;2022-09-27T11:11:26;99084.22;;;17.77;36.28
70200;BME280;57587;55.688;37.600;2022-09-27T11:17:18;99072.44;;;17.02;37.24
70200;BME280;57587;55.688;37.600;2022-09-27T11:39:32;99048.31;;;15.53;40.28
70200;BME280;57587;55.688;37.600;2022-09-27T11:52:11;99035.16;;;15.27;42.58
70200;BME280;57587;55.688;37.600;2022-09-27T11:57:41;99036.41;;;15.12;42.89
70200;BME280;57587;55.688;37.600;2022-09-27T12:00:54;99039.84;;;15.01;42.86
70200;BME280;57587;55.688;37.600;2022-09-27T12:06:46;99046.06;;;15.02;43.12
70200;BME280;57587;55.688;37.600;2022-09-27T12:09:31;99045.25;;;15.01;43.17
70200;BME280;57587;55.688;37.600;2022-09-27T12:12:04;99043.81;;;15.17;43.31
70200;BME280;57587;55.688;37.600;2022-09-27T12:14:49;99036.41;;;15.12;43.26
70200;BME280;57587;55.688;37.600;2022-09-27T12:17:23;99033.94;;;15.11;43.22
70200;BME280;57587;55.688;37.600;2022-09-27T12:19:55;99035.97;;;15.15;43.02
70200;BME280;57587;55.688;37.600;2022-09-27T12:25:40;99021.88;;;15.13;42.88
70200;BME280;57587;55.688;37.600;2022-09-27T12:28:29;99018.59;;;15.11;43.11
70200;BME280;57587;55.688;37.600;2022-09-27T12:31:47;99020.25;;;15.12;43.05
70200;BME280;57587;55.688;37.600;2022-09-27T12:37:13;99006.28;;;14.67;44.04
70200;BME280;57587;55.688;37.600;2022-09-27T12:39:57;99011.81;;;14.72;44.08
70200;BME280;57587;55.688;37.600;2022-09-27T12:42:49;99016.50;;;14.76;44.25
70200;BME280;57587;55.688;37.600;2022-09-27T12:45:42;99014.72;;;14.89;44.47
70200;BME280;57587;55.688;37.600;2022-09-27T12:48:20;99012.34;;;14.81;44.05
70200;BME280;57587;55.688;37.600;2022-09-27T12:51:10;99006.97;;;14.81;44.25
70200;BME280;57587;55.688;37.600;2022-09-27T13:01:44;99009.34;;;14.70;44.92
70200;BME280;57587;55.688;37.600;2022-09-27T13:10:09;99007.88;;;14.49;45.34
70200;BME280;57587;55.688;37.600;2022-09-27T13:12:39;99006.47;;;14.47;45.34
70200;BME280;57587;55.688;37.600;2022-09-27T13:15:17;99011.59;;;14.48;44.84
70200;BME280;57587;55.688;37.600;2022-09-27T13:17:52;99005.00;;;14.26;45.43
70200;BME280;57587;55.688;37.600;2022-09-27T13:22:59;99008.50;;;14.26;45.90
70200;BME280;57587;55.688;37.600;2022-09-27T13:25:50;99000.44;;;14.26;45.61
70200;BME280;57587;55.688;37.600;2022-09-27T13:34:49;98993.69;;;14.17;46.94
70200;BME280;57587;55.688;37.600;2022-09-27T13:46:05;99002.72;;;14.04;46.94
70200;BME280;57587;55.688;37.600;2022-09-27T13:48:45;98996.78;;;13.96;47.09
70200;BME280;57587;55.688;37.600;2022-09-27T13:54:03;98992.72;;;13.87;47.72
70200;BME280;57587;55.688;37.600;2022-09-27T13:59:16;98981.53;;;13.90;48.33
70200;BME280;57587;55.688;37.600;2022-09-27T14:02:01;98990.91;;;13.80;48.46
70200;BME280;57587;55.688;37.600;2022-09-27T14:04:40;98990.31;;;13.78;48.70
70200;BME280;57587;55.688;37.600;2022-09-27T14:07:14;98984.75;;;13.73;49.28
70200;BME280;57587;55.688;37.600;2022-09-27T14:09:45;98982.13;;;13.67;49.53
70200;BME280;57587;55.688;37.600;2022-09-27T14:12:27;98987.69;;;13.65;49.71
70200;BME280;57587;55.688;37.600;2022-09-27T14:14:59;98984.81;;;13.67;50.03
70200;BME280;57587;55.688;37.600;2022-09-27T14:17:30;98980.25;;;13.67;50.02
70200;BME280;57587;55.688;37.600;2022-09-27T14:20:00;98980.06;;;13.62;50.37
70200;BME280;57587;55.688;37.600;2022-09-27T14:22:29;98993.63;;;13.49;51.28
70200;BME280;57587;55.688;37.600;2022-09-27T14:25:15;98984.59;;;13.36;51.72
70200;BME280;57587;55.688;37.600;2022-09-27T14:27:46;98982.16;;;13.28;51.65
70200;BME280;57587;55.688;37.600;2022-09-27T14:30:33;98988.78;;;13.19;52.38
70200;BME280;57587;55.688;37.600;2022-09-27T14:33:29;98979.56;;;13.08;52.77
70200;BME280;57587;55.688;37.600;2022-09-27T14:39:15;98978.56;;;13.03;53.33
70200;BME280;57587;55.688;37.600;2022-09-27T14:41:49;98979.78;;;13.07;53.19
70200;BME280;57587;55.688;37.600;2022-09-27T14:44:18;98986.97;;;13.13;53.26
70200;BME280;57587;55.688;37.600;2022-09-27T14:47:33;98972.31;;;13.09;53.15
70200;BME280;57587;55.688;37.600;2022-09-27T14:50:01;98978.50;;;13.09;52.76
70200;BME280;57587;55.688;37.600;2022-09-27T14:52:38;98972.31;;;13.09;53.21
70200;BME280;57587;55.688;37.600;2022-09-27T14:57:33;98973.19;;;13.03;52.97
70200;BME280;57587;55.688;37.600;2022-09-27T15:02:49;98963.28;;;12.97;53.31
70200;BME280;57587;55.688;37.600;2022-09-27T15:05:26;98962.69;;;12.95;53.24
70200;BME280;57587;55.688;37.600;2022-09-27T15:07:58;98966.81;;;12.90;53.55
70200;BME280;57587;55.688;37.600;2022-09-27T15:10:28;98962.13;;;12.86;53.99
70200;BME280;57587;55.688;37.600;2022-09-27T15:13:00;98969.94;;;12.87;53.64
70200;BME280;57587;55.688;37.600;2022-09-27T15:15:35;98959.69;;;12.71;53.86
70200;BME280;57587;55.688;37.600;2022-09-27T15:21:11;98947.75;;;12.67;54.01
70200;BME280;57587;55.688;37.600;2022-09-27T15:23:44;98956.81;;;12.66;53.87
70200;BME280;57587;55.688;37.600;2022-09-27T15:28:51;98953.13;;;12.67;54.49
70200;BME280;57587;55.688;37.600;2022-09-27T15:31:33;98952.91;;;12.62;54.51
70200;BME280;57587;55.688;37.600;2022-09-27T15:34:02;98941.16;;;12.56;54.69
70200;BME280;57587;55.688;37.600;2022-09-27T15:39:25;98941.81;;;12.52;55.23
70200;BME280;57587;55.688;37.600;2022-09-27T15:47:38;98932.72;;;12.53;55.49
70200;BME280;57587;55.688;37.600;2022-09-27T15:55:14;98926.56;;;12.45;55.71
70200;BME280;57587;55.688;37.600;2022-09-27T15:57:45;98924.31;;;12.36;56.06
70200;BME280;57587;55.688;37.600;2022-09-27T16:00:16;98934.44;;;12.34;55.85
70200;BME280;57587;55.688;37.600;2022-09-27T16:02:44;98928.03;;;12.28;56.04
70200;BME280;57587;55.688;37.600;2022-09-27T16:05:12;98917.75;;;12.25;56.41
70200;BME280;57587;55.688;37.600;2022-09-27T16:07:40;98921.25;;;12.19;56.12
70200;BME280;57587;55.688;37.600;2022-09-27T16:10:16;98917.56;;;12.13;56.45
70200;BME280;57587;55.688;37.600;2022-09-27T16:12:44;98916.97;;;12.11;56.95
70200;BME280;57587;55.688;37.600;2022-09-27T16:15:12;98921.47;;;12.11;56.91
70200;BME280;57587;55.688;37.600;2022-09-27T16:17:40;98905.38;;;12.11;56.76
70200;BME280;57587;55.688;37.600;2022-09-27T16:20:23;98913.66;;;12.09;56.77
70200;BME280;57587;55.688;37.600;2022-09-27T16:22:54;98910.75;;;12.04;56.87
70200;BME280;57587;55.688;37.600;2022-09-27T16:25:21;98910.38;;;12.00;56.87
70200;BME280;57587;55.688;37.600;2022-09-27T16:27:49;98912.22;;;12.00;57.03
70200;BME280;57587;55.688;37.600;2022-09-27T16:30:17;98912.44;;;11.98;57.40
70200;BME280;57587;55.688;37.600;2022-09-27T16:32:48;98915.72;;;12.00;57.14
70200;BME280;57587;55.688;37.600;2022-09-27T16:35:17;98913.44;;;12.04;57.00
70200;BME280;57587;55.688;37.600;2022-09-27T16:37:44;98907.91;;;11.99;57.37
70200;BME280;57587;55.688;37.600;2022-09-27T16:40:15;98904.59;;;12.04;57.32
70200;BME280;57587;55.688;37.600;2022-09-27T16:42:48;98900.47;;;11.94;57.77
70200;BME280;57587;55.688;37.600;2022-09-27T16:45:16;98907.91;;;11.92;57.96
70200;BME280;57587;55.688;37.600;2022-09-27T16:47:45;98902.97;;;11.89;57.92
70200;BME280;57587;55.688;37.600;2022-09-27T16:50:16;98905.44;;;11.77;58.15
70200;BME280;57587;55.688;37.600;2022-09-27T16:53:02;98901.09;;;11.70;58.67
70200;BME280;57587;55.688;37.600;2022-09-27T16:55:31;98894.09;;;11.62;59.33
70200;BME280;57587;55.688;37.600;2022-09-27T16:57:58;98894.31;;;11.74;59.26
70200;BME280;57587;55.688;37.600;2022-09-27T17:00:26;98904.81;;;11.69;59.65